Shoshone, California Weather observations

Data are for observation ending at time listed.
 Day   Time    Ave.   Ave.  Ave.  Vector   Max.   Stn.    Total    Solar   Ave.  
  of    of     Air    Rel.  Wind   Wind    Wind   Baro.  Precip.   Rad.    Soil  
Year   Day     Temp.  Hum.  Speed  Dir.    Gust   Pres.                    Temp. 
2016   (PST)    F      %     mph   deg.    mph     mb.     in.     W/m2     F   
------------------------------------------------------------------------------
  44    7:00   34.7    70    0.6    52      2.9    975     0.00       8    99999.0
  44    8:00   38.7    65    0.4    29      1.8    975     0.00     156    99999.0
  44    9:00   49.8    46    1.8   308      5.2    976     0.00     364    99999.0
  44   10:00   56.7    34    2.3   270      5.2    975     0.00     543    99999.0
  44   11:00   63.5    26    2.6   281      6.8    975     0.00     694    99999.0
  44   12:00   69.8    20    3.4   342     10.2    974     0.00     745    99999.0
  44   13:00   74.2    16    6.5   318     13.9    973     0.00     756    99999.0
  44   14:00   76.3    15    3.7   282      8.3    972     0.00     625    99999.0
  44   15:00   78.3    14    2.8   242      6.7    972     0.00     533    99999.0
  44   16:00   79.4    14    2.8   177      8.2    972     0.00     352    99999.0
  44   17:00   76.5    15    5.0   175      9.3    972     0.00     146    99999.0
  44   18:00   70.0    19    1.0    93      4.0    972     0.00       6    99999.0
  44   19:00   63.0    24    1.4    52      4.0    972     0.00       0    99999.0
  44   20:00   56.3    34    1.9   336      5.2    972     0.00       0    99999.0
  44   21:00   52.7    38    0.9    67      3.5    972     0.00       0    99999.0
  44   22:00   48.5    45    0.6    24      2.6    973     0.00       2    99999.0
  44   23:00   46.8    48    0.8    60      4.4    973     0.00       1    99999.0
  45    0:00   46.8    48    1.1   104      4.3    973     0.00       1    99999.0
  45    1:00   43.9    52    0.6   350      5.2    974     0.00       1    99999.0
  45    2:00   50.8    34    2.8   336     10.4    974     0.00       1    99999.0
  45    3:00   49.8    33    2.3    95      6.7    973     0.00       1    99999.0
  45    4:00   50.4    32    1.9   118      5.8    973     0.00       1    99999.0
  45    5:00   46.3    39    1.3    48      7.6    973     0.00       1    99999.0
  45    6:00   43.7    44    1.9    72      8.0    973     0.00       1    99999.0

Return to Shoshone, California graphs page.


Western Regional Climate Center,wrcc@dri.edu